PWSweather.com
Personal Weather Stations
Station Observations
GEELONGWX1
Bell Post Hill, GeelongAU

Bell Post HillGeelongAU

Lat: -38.101, Lon: 144.326

Elevation: 204

Station Type: Davis Vantage Pro2

http://www.geelongweather.com

Latest ConditionsUpdated 6:10:01 AM GMT+10:10 Saturday, Dec 20, 2014
Currently Today's Max Today's Min Today's Average
Temperature 51.6°F10.9°C 52.7°F11.5°C 49.0°F9.4°C 50.9°F10.5°C
Dew Point 45.0°F7.2°C 45.0°F7.2°C 42.8°F6.0°C 43.9°F6.6°C
Winds 2.3 mph SSW3.7 kmh SSW 4.6 mph SSW7.4 kmh SSW - 1.7 mph 2.7 kmh
Wind Gusts 4.6 mph7.4 kmh 8.1 mph13.0 kmh - -
Humidity 78% 79% 73% 77%
Pressure 30.16 in1021.3 mb 30.18 in1022.0 mb 30.14 in1020.7 mb -
Hour Temp Dew Point Humidity Winds Wind Gusts Pressure Precip Precip Rate Daily Precip Total
06:10 AM 51.6°F10.9°C 45.0°F7.2°C 78% 2.3 mph SSW3.7 kmh SSW 4.6 mph7.4 kmh 30.16 in1021.3 mb 0.00 in0.0 mm 0.00 in/hr0.0 mm/hr 0.00 in0.0 mm
06:00 AM 50.8°F10.4°C 44.2°F6.8°C 78% 4.6 mph SSW7.4 kmh SSW 5.8 mph9.3 kmh 30.16 in1021.3 mb 0.00 in0.0 mm 0.00 in/hr0.0 mm/hr 0.00 in0.0 mm
05:50 AM 50.0°F10.0°C 43.4°F6.3°C 78% 1.2 mph SSW1.9 kmh SSW 2.3 mph3.7 kmh 30.15 in1021.0 mb 0.00 in0.0 mm 0.00 in/hr0.0 mm/hr 0.00 in0.0 mm
05:40 AM 49.4°F9.7°C 42.8°F6.0°C 78% 2.3 mph SSW3.7 kmh SSW 4.6 mph7.4 kmh 30.15 in1021.0 mb 0.00 in0.0 mm 0.00 in/hr0.0 mm/hr 0.00 in0.0 mm
05:30 AM 49.1°F9.5°C 42.9°F6.1°C 79% 1.2 mph S1.9 kmh S 3.5 mph5.6 kmh 30.15 in1021.0 mb 0.00 in0.0 mm 0.00 in/hr0.0 mm/hr 0.00 in0.0 mm
05:20 AM 49.0°F9.4°C 42.8°F6.0°C 79% 1.2 mph SSW1.9 kmh SSW 3.5 mph5.6 kmh 30.15 in1021.0 mb 0.00 in0.0 mm 0.00 in/hr0.0 mm/hr 0.00 in0.0 mm
05:10 AM 49.0°F9.4°C 42.8°F6.0°C 79% 2.3 mph S3.7 kmh S 3.5 mph5.6 kmh 30.15 in1021.0 mb 0.00 in0.0 mm 0.00 in/hr0.0 mm/hr 0.00 in0.0 mm
05:00 AM 49.0°F9.4°C 42.8°F6.0°C 79% 1.2 mph SSW1.9 kmh SSW 3.5 mph5.6 kmh 30.15 in1021.0 mb 0.00 in0.0 mm 0.00 in/hr0.0 mm/hr 0.00 in0.0 mm
04:50 AM 49.0°F9.4°C 42.8°F6.0°C 79% 3.5 mph SSW5.6 kmh SSW 5.8 mph9.3 kmh 30.15 in1021.0 mb 0.00 in0.0 mm 0.00 in/hr0.0 mm/hr 0.00 in0.0 mm
04:40 AM 49.2°F9.6°C 43.0°F6.1°C 79% 2.3 mph S3.7 kmh S 4.6 mph7.4 kmh 30.15 in1021.0 mb 0.00 in0.0 mm 0.00 in/hr0.0 mm/hr 0.00 in0.0 mm
04:30 AM 49.4°F9.7°C 43.1°F6.2°C 79% 1.2 mph SSW1.9 kmh SSW 3.5 mph5.6 kmh 30.14 in1020.7 mb 0.00 in0.0 mm 0.00 in/hr0.0 mm/hr 0.00 in0.0 mm
04:20 AM 49.6°F9.8°C 43.0°F6.1°C 78% 3.5 mph S5.6 kmh S 4.6 mph7.4 kmh 30.15 in1021.0 mb 0.00 in0.0 mm 0.00 in/hr0.0 mm/hr 0.00 in0.0 mm
04:10 AM 49.9°F9.9°C 43.6°F6.4°C 79% 1.2 mph S1.9 kmh S 4.6 mph7.4 kmh 30.14 in1020.7 mb 0.00 in0.0 mm 0.00 in/hr0.0 mm/hr 0.00 in0.0 mm
04:00 AM 50.1°F10.1°C 43.5°F6.4°C 78% 2.3 mph S3.7 kmh S 4.6 mph7.4 kmh 30.14 in1020.7 mb 0.00 in0.0 mm 0.00 in/hr0.0 mm/hr 0.00 in0.0 mm
03:50 AM 50.3°F10.2°C 43.7°F6.5°C 78% 3.5 mph S5.6 kmh S 5.8 mph9.3 kmh 30.14 in1020.7 mb 0.00 in0.0 mm 0.00 in/hr0.0 mm/hr 0.00 in0.0 mm
03:40 AM 50.5°F10.3°C 43.9°F6.6°C 78% 3.5 mph SSW5.6 kmh SSW 4.6 mph7.4 kmh 30.14 in1020.7 mb 0.00 in0.0 mm 0.00 in/hr0.0 mm/hr 0.00 in0.0 mm
03:30 AM 50.6°F10.3°C 44.0°F6.7°C 78% Calm Calm 4.6 mph7.4 kmh 30.14 in1020.7 mb 0.00 in0.0 mm 0.00 in/hr0.0 mm/hr 0.00 in0.0 mm
03:20 AM 50.8°F10.4°C 44.2°F6.8°C 78% 2.3 mph SSW3.7 kmh SSW 3.5 mph5.6 kmh 30.14 in1020.7 mb 0.00 in0.0 mm 0.00 in/hr0.0 mm/hr 0.00 in0.0 mm
03:10 AM 50.9°F10.5°C 44.3°F6.8°C 78% 3.5 mph SSW5.6 kmh SSW 8.1 mph13.0 kmh 30.14 in1020.7 mb 0.00 in0.0 mm 0.00 in/hr0.0 mm/hr 0.00 in0.0 mm
03:00 AM 51.0°F10.6°C 44.4°F6.9°C 78% 2.3 mph SW3.7 kmh SW 3.5 mph5.6 kmh 30.14 in1020.7 mb 0.00 in0.0 mm 0.00 in/hr0.0 mm/hr 0.00 in0.0 mm
02:50 AM 51.2°F10.7°C 44.6°F7.0°C 78% 2.3 mph S3.7 kmh S 3.5 mph5.6 kmh 30.15 in1021.0 mb 0.00 in0.0 mm 0.00 in/hr0.0 mm/hr 0.00 in0.0 mm
02:40 AM 51.3°F10.7°C 44.7°F7.1°C 78% 2.3 mph S3.7 kmh S 3.5 mph5.6 kmh 30.14 in1020.7 mb 0.00 in0.0 mm 0.00 in/hr0.0 mm/hr 0.00 in0.0 mm
02:30 AM 51.3°F10.7°C 44.7°F7.1°C 78% 3.5 mph S5.6 kmh S 5.8 mph9.3 kmh 30.15 in1021.0 mb 0.00 in0.0 mm 0.00 in/hr0.0 mm/hr 0.00 in0.0 mm
02:20 AM 51.4°F10.8°C 44.4°F6.9°C 77% 2.3 mph S3.7 kmh S 3.5 mph5.6 kmh 30.14 in1020.7 mb 0.00 in0.0 mm 0.00 in/hr0.0 mm/hr 0.00 in0.0 mm
02:10 AM 51.4°F10.8°C 44.4°F6.9°C 77% 3.5 mph S5.6 kmh S 4.6 mph7.4 kmh 30.15 in1021.0 mb 0.00 in0.0 mm 0.00 in/hr0.0 mm/hr 0.00 in0.0 mm
02:00 AM 51.5°F10.8°C 44.2°F6.8°C 76% 2.3 mph S3.7 kmh S 3.5 mph5.6 kmh 30.15 in1021.0 mb 0.00 in0.0 mm 0.00 in/hr0.0 mm/hr 0.00 in0.0 mm
01:50 AM 51.6°F10.9°C 44.3°F6.8°C 76% 3.5 mph S5.6 kmh S 4.6 mph7.4 kmh 30.15 in1021.0 mb 0.00 in0.0 mm 0.00 in/hr0.0 mm/hr 0.00 in0.0 mm
01:40 AM 51.7°F10.9°C 44.4°F6.9°C 76% Calm Calm -- 30.15 in1021.0 mb 0.00 in0.0 mm 0.00 in/hr0.0 mm/hr 0.00 in0.0 mm
01:30 AM 51.8°F11.0°C 44.1°F6.7°C 75% Calm Calm -- 30.15 in1021.0 mb 0.00 in0.0 mm 0.00 in/hr0.0 mm/hr 0.00 in0.0 mm
01:20 AM 51.9°F11.1°C 44.2°F6.8°C 75% Calm Calm -- 30.16 in1021.3 mb 0.00 in0.0 mm 0.00 in/hr0.0 mm/hr 0.00 in0.0 mm
01:10 AM 51.9°F11.1°C 44.2°F6.8°C 75% Calm Calm -- 30.16 in1021.3 mb 0.00 in0.0 mm 0.00 in/hr0.0 mm/hr 0.00 in0.0 mm
01:00 AM 52.0°F11.1°C 44.0°F6.7°C 74% Calm Calm 3.5 mph5.6 kmh 30.17 in1021.7 mb 0.00 in0.0 mm 0.00 in/hr0.0 mm/hr 0.00 in0.0 mm
12:50 AM 52.1°F11.2°C 44.1°F6.7°C 74% 1.2 mph SSW1.9 kmh SSW 2.3 mph3.7 kmh 30.17 in1021.7 mb 0.00 in0.0 mm 0.00 in/hr0.0 mm/hr 0.00 in0.0 mm
12:40 AM 52.1°F11.2°C 44.1°F6.7°C 74% Calm Calm -- 30.17 in1021.7 mb 0.00 in0.0 mm 0.00 in/hr0.0 mm/hr 0.00 in0.0 mm
12:30 AM 52.3°F11.3°C 44.3°F6.8°C 74% Calm Calm -- 30.17 in1021.7 mb 0.00 in0.0 mm 0.00 in/hr0.0 mm/hr 0.00 in0.0 mm
12:20 AM 52.4°F11.3°C 44.0°F6.7°C 73% Calm Calm -- 30.17 in1021.7 mb 0.00 in0.0 mm 0.00 in/hr0.0 mm/hr 0.00 in0.0 mm
12:10 AM 52.5°F11.4°C 44.1°F6.7°C 73% Calm Calm -- 30.18 in1022.0 mb 0.00 in0.0 mm 0.00 in/hr0.0 mm/hr 0.00 in0.0 mm
12:00 AM 52.7°F11.5°C 44.3°F6.8°C 73% Calm Calm -- 30.18 in1022.0 mb 0.00 in0.0 mm 0.00 in/hr0.0 mm/hr 0.00 in0.0 mm